KEDE/EDE METAR and TAF weather

Enter ICAO airport designator
Station Type Date Time Source
KEDE METAR 2019/10/15 09:15 UTC NOAA

KEDE 150915Z AUTO 00000KT 10SM SCT001 12/11 A3009 RMK AO2 T01150112


Station Type Date Time Source
KEDE Decoded METAR 2019/10/15 09:15 UTC NOAA

Edenton, Northeastern Regional Airport, NC, United States (KEDE) 36-01-40N 076-34-02W
Oct 15, 2019 - 05:15 AM EDT / 2019.10.15 0915 UTC
Wind: Calm:0
Visibility: 10 mile(s):0
Sky conditions: partly cloudy
Temperature: 52.7 F (11.5 C)
Dew Point: 52.2 F (11.2 C)
Relative Humidity: 98%
Pressure (altimeter): 30.09 in. Hg (1018 hPa)
ob: KEDE 150915Z AUTO 00000KT 10SM SCT001 12/11 A3009 RMK AO2 T01150112
cycle: 9

Station Type Date Time Source
KEDE TAF UTC NOAA

Error!

Example: see airport list